This is the latest recevied weather packets stored in our database for station/object W4KAB. If no packets are shown the sender has not sent any weather packets the latest 1 day(s).
| Time | Temp. | Humidity | Pressure | Rain* | Wind** | Luminosity | Snow |
|---|---|---|---|---|---|---|---|
| 1778018898 | 23.89° C | 40% | 1014.4 hPa | 0 mm | 0 m/s | 52 W/m² | - |
| 1778018595 | 23.89° C | 41% | 1014.6 hPa | 0 mm | 0 m/s | 52 W/m² | - |
| 1778018293 | 23.89° C | 41% | 1014.7 hPa | 0 mm | 0 m/s | 58 W/m² | - |
| 1778017990 | 23.89° C | 41% | 1014.7 hPa | 0 mm | 0.45 m/s, 242° | 71 W/m² | - |
| 1778017688 | 24.44° C | 41% | 1014.7 hPa | 0 mm | 0 m/s | 99 W/m² | - |
| 1778017386 | 24.44° C | 40% | 1014.6 hPa | 0 mm | 0 m/s | 82 W/m² | - |
| 1778017082 | 24.44° C | 41% | 1015 hPa | 0 mm | 1.34 m/s, 236° | 79 W/m² | - |
| 1778016780 | 24.44° C | 40% | 1014.8 hPa | 0 mm | 0.45 m/s, 253° | 118 W/m² | - |
| 1778016475 | 25° C | 40% | 1014.9 hPa | 0 mm | 0.89 m/s, 311° | 139 W/m² | - |
| 1778016173 | 24.44° C | 39% | 1014.8 hPa | 0 mm | 0 m/s | 114 W/m² | - |
| 1778015869 | 24.44° C | 40% | 1015 hPa | 0 mm | 1.34 m/s, 253° | 126 W/m² | - |
| 1778015567 | 24.44° C | 40% | 1015 hPa | 0 mm | 0 m/s | 137 W/m² | - |
| 1778015263 | 24.44° C | 40% | 1015 hPa | 0 mm | 0 m/s | 151 W/m² | - |
| 1778014960 | 25° C | 40% | 1015 hPa | 0 mm | 0.45 m/s, 258° | 114 W/m² | - |
| 1778014658 | 25° C | 38% | 1014.9 hPa | 0 mm | 0.45 m/s, 249° | 170 W/m² | - |
| 1778014356 | 25° C | 38% | 1015 hPa | 0 mm | 0 m/s | 104 W/m² | - |
| 1778014052 | 25° C | 38% | 1014.9 hPa | 0 mm | 0.45 m/s, 318° | 117 W/m² | - |
| 1778013750 | 25.56° C | 37% | 1015.4 hPa | 0 mm | 0 m/s | 107 W/m² | - |
| 1778013447 | 26.11° C | 36% | 1015.1 hPa | 0 mm | 1.34 m/s, 240° | 415 W/m² | - |
| 1778013144 | 26.67° C | 35% | 1015 hPa | 0 mm | 0 m/s | 499 W/m² | - |
| 1778012840 | 26.11° C | 36% | 1015.2 hPa | 0 mm | 0.45 m/s, 266° | 564 W/m² | - |
| 1778012536 | 26.11° C | 36% | 1015 hPa | 0 mm | 0.45 m/s, 264° | 511 W/m² | - |
| 1778012232 | 26.11° C | 37% | 1014.8 hPa | 0 mm | 0 m/s | 510 W/m² | - |
| 1778011930 | 25.56° C | 37% | 1015.4 hPa | 0 mm | 0 m/s | 521 W/m² | - |
| 1778011628 | 25.56° C | 38% | 1015.5 hPa | 0 mm | 1.34 m/s, 274° | 496 W/m² | - |
* Rain latest hour (hover to see other rain measurements)
** Current wind speed in m/s (hover to see current wind gust speed)